Time;durP1;ratioP1;P1;durP2;ratioP2;P2;SDS_P1;SDS_P2;PMS_P1;PMS_P2;Temp;Humidity;BMP_temperature;BMP_pressure;BME280_temperature;BME280_humidity;BME280_pressure;Samples;Min_cycle;Max_cycle;Signal;HPM_P1;HPM_P2
2023/05/06 00:01:02;;;;;;;7.10;2.97;;;;;11.90;101107.00;;;;9797338;29;20899;-77
2023/05/06 00:06:05;;;;;;;5.40;2.67;;;;;11.90;101096.00;;;;9804269;29;20235;-80
2023/05/06 00:11:07;;;;;;;3.77;2.60;;;;;11.80;101091.00;;;;9818524;29;20231;-77
2023/05/06 00:16:08;;;;;;;4.10;2.27;;;;;11.70;101096.00;;;;9794696;29;20316;-80
2023/05/06 00:21:10;;;;;;;4.53;2.30;;;;;11.70;101093.00;;;;9790071;29;20522;-77
2023/05/06 00:26:12;;;;;;;5.97;2.53;;;;;11.60;101088.00;;;;9791976;29;20304;-77
2023/05/06 00:31:13;;;;;;;3.87;2.33;;;;;11.60;101094.00;;;;9799931;29;20286;-77
2023/05/06 00:36:14;;;;;;;4.00;2.80;;;;;11.50;101094.00;;;;9800542;29;20294;-80
2023/05/06 00:41:16;;;;;;;8.67;2.17;;;;;11.50;101083.00;;;;9820003;29;21135;-79
2023/05/06 00:46:17;;;;;;;5.20;1.93;;;;;11.40;101081.00;;;;9777459;29;20216;-78
2023/05/06 00:51:19;;;;;;;3.50;2.27;;;;;11.30;101079.00;;;;9776128;29;20332;-80
2023/05/06 00:56:21;;;;;;;4.63;1.90;;;;;11.30;101086.00;;;;9775509;29;20703;-76
2023/05/06 01:01:23;;;;;;;3.57;2.37;;;;;11.20;101084.00;;;;9783445;29;21190;-76
2023/05/06 01:06:33;;;;;;;4.70;2.10;;;;;11.10;101077.00;;;;9786058;29;20224;-81
2023/05/06 01:11:46;;;;;;;2.77;2.00;;;;;11.10;101070.00;;;;9790433;29;20489;-81
2023/05/06 01:16:51;;;;;;;5.53;2.23;;;;;11.00;101073.00;;;;9785092;29;20231;-79
2023/05/06 01:21:55;;;;;;;4.77;2.00;;;;;11.00;101081.00;;;;9795363;29;20243;-77
2023/05/06 01:26:56;;;;;;;4.63;2.23;;;;;10.90;101083.00;;;;9800496;29;20223;-78
2023/05/06 01:32:18;;;;;;;4.40;2.60;;;;;10.80;101075.00;;;;9799585;29;20325;-78
2023/05/06 01:37:52;;;;;;;6.37;2.63;;;;;10.80;101083.00;;;;9760982;29;20695;-79
2023/05/06 01:42:54;;;;;;;5.00;3.03;;;;;10.80;101088.00;;;;9773255;29;20240;-80
2023/05/06 01:47:56;;;;;;;6.33;3.73;;;;;10.70;101085.00;;;;9773989;29;20232;-80
2023/05/06 01:53:01;;;;;;;4.57;2.83;;;;;10.70;101086.00;;;;9778889;29;20274;-77
2023/05/06 01:58:03;;;;;;;5.73;2.80;;;;;10.70;101082.00;;;;9797097;29;20246;-77
2023/05/06 02:03:04;;;;;;;5.97;2.77;;;;;10.70;101091.00;;;;9793304;29;20673;-78
2023/05/06 02:08:06;;;;;;;5.83;2.90;;;;;10.70;101078.00;;;;9799876;29;20694;-78
2023/05/06 02:13:09;;;;;;;5.20;2.90;;;;;10.70;101086.00;;;;9790244;29;20215;-79
2023/05/06 02:18:11;;;;;;;5.57;2.50;;;;;10.70;101083.00;;;;9795896;29;20224;-78
2023/05/06 02:23:13;;;;;;;3.43;2.60;;;;;10.50;101085.00;;;;9794435;29;20250;-78
2023/05/06 02:28:14;;;;;;;6.30;2.67;;;;;10.40;101083.00;;;;9809595;29;20231;-77
2023/05/06 02:33:16;;;;;;;4.03;2.33;;;;;10.40;101079.00;;;;9783402;29;20231;-79
2023/05/06 02:38:18;;;;;;;4.40;2.57;;;;;10.40;101085.00;;;;9780577;29;20228;-77
2023/05/06 02:43:21;;;;;;;4.27;2.40;;;;;10.40;101091.00;;;;9799177;29;20239;-78
2023/05/06 02:48:23;;;;;;;7.87;3.03;;;;;10.40;101093.00;;;;9778874;29;20250;-80
2023/05/06 02:53:24;;;;;;;5.00;2.30;;;;;10.40;101087.00;;;;9778350;29;20891;-82
2023/05/06 02:58:26;;;;;;;3.20;2.57;;;;;10.40;101080.00;;;;9777049;29;20231;-78
2023/05/06 03:03:28;;;;;;;5.90;2.60;;;;;10.20;101091.00;;;;9789086;29;20639;-79
2023/05/06 03:08:29;;;;;;;6.23;2.47;;;;;10.00;101087.00;;;;9775330;29;20317;-83
2023/05/06 03:13:31;;;;;;;2.67;2.37;;;;;9.90;101105.00;;;;9792990;29;21885;-76
2023/05/06 03:18:32;;;;;;;5.23;2.80;;;;;9.90;101106.00;;;;9777886;29;20246;-79
2023/05/06 03:23:34;;;;;;;4.70;3.07;;;;;9.90;101107.00;;;;9783540;29;20731;-77
2023/05/06 03:28:35;;;;;;;5.23;3.00;;;;;9.90;101112.00;;;;9799767;29;21265;-76
2023/05/06 03:33:38;;;;;;;4.20;3.00;;;;;9.90;101103.00;;;;9789924;29;21035;-78
2023/05/06 03:38:42;;;;;;;4.50;2.80;;;;;9.90;101105.00;;;;9777250;29;20350;-78
2023/05/06 03:43:44;;;;;;;4.73;3.00;;;;;9.90;101094.00;;;;9805019;29;20251;-77
2023/05/06 03:48:46;;;;;;;6.27;3.13;;;;;9.90;101107.00;;;;9803600;29;20231;-79
2023/05/06 03:53:51;;;;;;;5.27;2.97;;;;;9.90;101108.00;;;;9802724;29;20235;-81
2023/05/06 03:58:56;;;;;;;4.33;2.77;;;;;9.90;101110.00;;;;9800822;29;20448;-76
2023/05/06 04:04:00;;;;;;;6.23;2.90;;;;;9.90;101111.00;;;;9771368;29;20254;-80
2023/05/06 04:09:03;;;;;;;3.47;2.50;;;;;9.90;101102.00;;;;9797880;29;20223;-77
2023/05/06 04:14:04;;;;;;;3.43;2.60;;;;;9.80;101096.00;;;;9777617;29;20315;-78
2023/05/06 04:19:07;;;;;;;4.27;2.63;;;;;9.60;101095.00;;;;9782207;29;20231;-77
2023/05/06 04:24:10;;;;;;;5.03;3.20;;;;;9.70;101113.00;;;;9792668;29;20247;-78
2023/05/06 04:29:13;;;;;;;6.23;3.43;;;;;9.90;101102.00;;;;9768080;29;20609;-77
2023/05/06 04:34:26;;;;;;;6.77;3.00;;;;;10.00;101109.00;;;;9788615;29;20683;-81
2023/05/06 04:39:30;;;;;;;4.50;3.23;;;;;10.10;101094.00;;;;9783404;29;20252;-79
2023/05/06 04:44:32;;;;;;;4.00;2.80;;;;;10.10;101104.00;;;;9795141;29;20365;-78
2023/05/06 04:49:35;;;;;;;5.33;3.60;;;;;10.20;101101.00;;;;9783420;29;20284;-76
2023/05/06 04:54:38;;;;;;;7.23;3.23;;;;;10.20;101110.00;;;;9802431;29;20284;-77
2023/05/06 04:59:41;;;;;;;3.60;2.73;;;;;10.30;101114.00;;;;9781808;29;20854;-80
2023/05/06 05:04:43;;;;;;;4.07;3.67;;;;;10.50;101121.00;;;;9806463;29;20935;-80
2023/05/06 05:09:44;;;;;;;5.67;3.40;;;;;10.80;101119.00;;;;9818655;29;20227;-79
2023/05/06 05:14:46;;;;;;;6.50;3.70;;;;;11.20;101129.00;;;;9799218;29;20316;-77
2023/05/06 05:19:47;;;;;;;7.33;4.93;;;;;11.50;101129.00;;;;9833718;29;20310;-79
2023/05/06 05:24:50;;;;;;;7.60;4.47;;;;;11.70;101126.00;;;;9831725;29;20981;-78
2023/05/06 05:29:51;;;;;;;5.17;3.70;;;;;12.00;101134.00;;;;9805120;29;21075;-78
2023/05/06 05:34:53;;;;;;;5.50;3.20;;;;;12.20;101137.00;;;;9802560;29;20228;-76
2023/05/06 05:39:54;;;;;;;3.53;2.80;;;;;12.60;101144.00;;;;9802629;29;20949;-79
2023/05/06 05:44:56;;;;;;;3.23;2.70;;;;;13.10;101132.00;;;;9772987;29;20240;-80
2023/05/06 05:49:59;;;;;;;2.97;2.50;;;;;13.70;101134.00;;;;9794018;29;20227;-76
2023/05/06 05:55:00;;;;;;;3.63;2.47;;;;;14.40;101129.00;;;;9789858;29;20224;-79
2023/05/06 06:00:04;;;;;;;3.47;2.10;;;;;14.90;101130.00;;;;9811992;29;20280;-79
2023/05/06 06:05:07;;;;;;;2.33;1.87;;;;;15.40;101121.00;;;;9802033;29;20251;-80
2023/05/06 06:10:09;;;;;;;3.27;2.17;;;;;15.90;101119.00;;;;9810347;29;20235;-80
2023/05/06 06:15:11;;;;;;;3.00;2.10;;;;;16.20;101117.00;;;;9830497;29;20223;-78
2023/05/06 06:20:15;;;;;;;4.38;1.90;;;;;16.50;101118.00;;;;9830491;29;20266;-77
2023/05/06 06:25:16;;;;;;;3.13;2.00;;;;;16.60;101108.00;;;;9801357;29;20254;-78
2023/05/06 06:30:18;;;;;;;3.28;1.60;;;;;16.90;101103.00;;;;9801494;29;20218;-78
2023/05/06 06:35:19;;;;;;;4.60;2.25;;;;;17.40;101105.00;;;;9800728;29;20226;-77
2023/05/06 06:40:21;;;;;;;2.95;2.08;;;;;17.90;101100.00;;;;9829706;29;20948;-79
2023/05/06 06:45:23;;;;;;;3.33;1.98;;;;;18.20;101107.00;;;;9799203;29;20602;-81
2023/05/06 06:50:25;;;;;;;2.30;2.10;;;;;18.60;101103.00;;;;9799820;29;20255;-81
2023/05/06 06:55:27;;;;;;;2.22;2.03;;;;;18.80;101093.00;;;;9814390;29;20219;-81
2023/05/06 07:00:28;;;;;;;3.15;2.28;;;;;19.20;101103.00;;;;9828122;29;20338;-81
2023/05/06 07:05:30;;;;;;;3.97;2.30;;;;;19.40;101101.00;;;;9814889;29;20247;-79
2023/05/06 07:10:31;;;;;;;3.22;2.28;;;;;19.70;101107.00;;;;9814275;29;20272;-79
2023/05/06 07:15:33;;;;;;;3.28;2.42;;;;;20.20;101095.00;;;;9813565;29;20244;-79
2023/05/06 07:20:34;;;;;;;2.70;2.03;;;;;20.50;101104.00;;;;9825959;29;20915;-80
2023/05/06 07:25:36;;;;;;;3.80;2.60;;;;;20.50;101107.00;;;;9804640;29;20472;-81
2023/05/06 07:30:38;;;;;;;6.80;3.05;;;;;21.40;101101.00;;;;9792618;29;20699;-81
2023/05/06 07:35:39;;;;;;;5.45;2.85;;;;;21.90;101096.00;;;;9810356;29;20226;-81
2023/05/06 07:40:40;;;;;;;4.35;2.25;;;;;22.40;101099.00;;;;9781152;29;21985;-79
2023/05/06 07:45:42;;;;;;;3.40;2.13;;;;;22.70;101094.00;;;;9791441;29;20231;-76
2023/05/06 07:50:43;;;;;;;4.00;1.90;;;;;22.30;101104.00;;;;9823121;29;20368;-77
2023/05/06 07:55:45;;;;;;;2.97;1.80;;;;;22.30;101091.00;;;;9793770;29;20235;-80
2023/05/06 08:00:47;;;;;;;2.30;1.70;;;;;22.80;101094.00;;;;9801656;29;20228;-81
2023/05/06 08:05:52;;;;;;;3.55;1.83;;;;;22.50;101089.00;;;;9807671;29;20378;-81
2023/05/06 08:10:54;;;;;;;2.95;1.83;;;;;23.10;101101.00;;;;9805502;29;22047;-80
2023/05/06 08:15:55;;;;;;;1.80;1.65;;;;;23.50;101109.00;;;;9824395;29;20308;-79
2023/05/06 08:20:57;;;;;;;3.30;1.70;;;;;23.80;101105.00;;;;9815322;29;20257;-79
2023/05/06 08:25:58;;;;;;;3.83;2.40;;;;;24.10;101103.00;;;;9777062;29;20237;-79
2023/05/06 08:31:00;;;;;;;2.70;2.03;;;;;24.40;101102.00;;;;9780765;29;20254;-80
2023/05/06 08:36:01;;;;;;;6.85;1.58;;;;;24.70;101101.00;;;;9785476;29;20220;-80
2023/05/06 08:41:08;;;;;;;2.88;1.75;;;;;25.00;101083.00;;;;9786156;29;20652;-79
2023/05/06 08:46:10;;;;;;;2.58;1.52;;;;;25.00;101087.00;;;;9795817;29;20228;-82
2023/05/06 08:51:14;;;;;;;2.80;1.33;;;;;25.50;101081.00;;;;9816604;29;20244;-79
2023/05/06 08:56:17;;;;;;;5.40;1.25;;;;;25.70;101079.00;;;;9794627;29;20239;-77
2023/05/06 09:01:18;;;;;;;3.53;1.48;;;;;25.90;101085.00;;;;9798898;29;20254;-84
2023/05/06 09:06:20;;;;;;;2.40;1.25;;;;;26.50;101078.00;;;;9775207;29;20835;-81
2023/05/06 09:11:29;;;;;;;3.22;1.02;;;;;26.30;101093.00;;;;9826091;29;20339;-78
2023/05/06 09:16:30;;;;;;;3.38;1.15;;;;;25.60;101095.00;;;;9826359;29;20223;-77
2023/05/06 09:21:34;;;;;;;3.38;1.33;;;;;25.20;101084.00;;;;9814143;29;21861;-80
2023/05/06 09:26:37;;;;;;;3.85;1.10;;;;;25.60;101080.00;;;;9807235;29;20242;-78
2023/05/06 09:31:44;;;;;;;5.18;1.55;;;;;26.40;101081.00;;;;9808200;29;20230;-79
2023/05/06 09:36:45;;;;;;;3.45;1.38;;;;;26.00;101077.00;;;;9812229;29;21200;-79
2023/05/06 09:41:47;;;;;;;4.45;1.35;;;;;26.10;101076.00;;;;9813008;29;20619;-77
2023/05/06 09:46:49;;;;;;;3.60;1.70;;;;;26.20;101074.00;;;;9825702;29;20228;-77
2023/05/06 09:51:51;;;;;;;4.13;1.48;;;;;26.20;101070.00;;;;9823161;29;20215;-77
2023/05/06 09:56:57;;;;;;;2.28;1.30;;;;;26.10;101075.00;;;;9824303;29;20220;-78
2023/05/06 10:02:03;;;;;;;3.80;1.60;;;;;25.90;101066.00;;;;9794016;29;20247;-78
2023/05/06 10:07:07;;;;;;;5.65;1.48;;;;;26.60;101054.00;;;;9825466;29;20227;-76
2023/05/06 10:12:09;;;;;;;2.88;1.25;;;;;27.00;101051.00;;;;9825760;29;20943;-77
2023/05/06 10:17:11;;;;;;;5.95;1.77;;;;;27.30;101051.00;;;;9803084;29;20290;-78
2023/05/06 10:22:48;;;;;;;4.38;1.40;;;;;28.00;101045.00;;;;9823731;29;20949;-78
2023/05/06 10:27:50;;;;;;;3.58;1.30;;;;;27.70;101047.00;;;;9797768;29;20219;-81
2023/05/06 10:32:55;;;;;;;3.20;1.27;;;;;27.40;101041.00;;;;9797879;29;20318;-79
2023/05/06 10:37:58;;;;;;;3.22;1.13;;;;;27.80;101041.00;;;;9816062;29;20765;-79
2023/05/06 10:43:18;;;;;;;2.65;0.95;;;;;28.00;101034.00;;;;9819510;29;20239;-78
2023/05/06 10:48:20;;;;;;;4.03;1.42;;;;;28.20;101034.00;;;;9819771;29;20234;-78
2023/05/06 10:53:54;;;;;;;2.97;0.80;;;;;27.40;101021.00;;;;9809144;29;20248;-79
2023/05/06 10:58:56;;;;;;;5.25;1.00;;;;;27.70;101014.00;;;;9805483;29;20224;-78
2023/05/06 11:04:01;;;;;;;4.22;1.65;;;;;27.50;101021.00;;;;9807840;29;20278;-79
2023/05/06 11:09:04;;;;;;;6.25;1.50;;;;;28.50;101012.00;;;;9825551;29;20228;-78
2023/05/06 11:14:12;;;;;;;3.40;1.00;;;;;29.00;101006.00;;;;9827396;29;20228;-79
2023/05/06 11:19:28;;;;;;;4.40;1.15;;;;;29.30;101001.00;;;;9816075;29;20281;-78
2023/05/06 11:24:42;;;;;;;2.65;1.00;;;;;29.30;101009.00;;;;9809678;29;21167;-78
2023/05/06 11:29:44;;;;;;;2.38;1.00;;;;;29.00;101001.00;;;;9813369;29;20303;-78
2023/05/06 11:34:45;;;;;;;4.20;1.33;;;;;28.70;100997.00;;;;9809126;29;20283;-79
2023/05/06 11:39:47;;;;;;;2.50;0.80;;;;;27.20;101005.00;;;;9787868;29;20238;-78
2023/05/06 11:44:49;;;;;;;1.90;1.13;;;;;26.80;100988.00;;;;9819468;29;20250;-83
2023/05/06 11:49:54;;;;;;;3.08;1.23;;;;;26.90;100993.00;;;;9810364;29;20314;-83
2023/05/06 11:54:56;;;;;;;4.15;1.50;;;;;27.30;101001.00;;;;9840886;29;20220;-80
2023/05/06 11:59:57;;;;;;;5.78;1.52;;;;;27.00;101004.00;;;;9841899;29;20223;-82
2023/05/06 12:05:01;;;;;;;2.17;1.20;;;;;26.90;101003.00;;;;9834506;29;20243;-77
2023/05/06 12:10:03;;;;;;;1.75;1.02;;;;;26.90;100998.00;;;;9831989;29;20240;-78
2023/05/06 12:15:05;;;;;;;3.60;1.38;;;;;26.40;101010.00;;;;9834335;29;20231;-78
2023/05/06 12:20:09;;;;;;;3.30;1.00;;;;;26.00;101005.00;;;;9829370;29;20223;-77
2023/05/06 12:25:13;;;;;;;2.70;1.00;;;;;25.30;101010.00;;;;9832290;29;20375;-78
2023/05/06 12:30:14;;;;;;;6.95;1.40;;;;;24.60;101009.00;;;;9830856;29;20220;-77
2023/05/06 12:35:27;;;;;;;5.82;1.50;;;;;24.20;101010.00;;;;9833448;29;20336;-82
2023/05/06 12:40:28;;;;;;;6.18;1.60;;;;;24.20;101018.00;;;;9825466;29;20234;-80
2023/05/06 12:45:30;;;;;;;26.50;2.50;;;;;24.50;101008.00;;;;9858212;29;20235;-79
2023/05/06 12:50:37;;;;;;;3.50;1.48;;;;;24.30;101012.00;;;;9830564;29;20283;-77
2023/05/06 12:55:44;;;;;;;30.23;2.75;;;;;24.00;101017.00;;;;9807728;29;20230;-77
2023/05/06 13:00:45;;;;;;;3.40;1.10;;;;;24.10;101004.00;;;;9811571;29;20247;-77
2023/05/06 13:05:48;;;;;;;5.05;1.23;;;;;24.10;101011.00;;;;9813094;29;20973;-78
2023/05/06 13:10:50;;;;;;;3.67;1.30;;;;;24.10;101007.00;;;;9828220;29;20239;-76
2023/05/06 13:15:52;;;;;;;4.43;1.17;;;;;23.80;101016.00;;;;9828140;29;20231;-75
2023/05/06 13:20:54;;;;;;;7.30;1.35;;;;;23.60;101012.00;;;;9826675;29;20227;-76
2023/05/06 13:25:56;;;;;;;4.45;1.58;;;;;23.40;101018.00;;;;9817709;29;21065;-79
2023/05/06 13:31:06;;;;;;;5.25;1.50;;;;;23.80;101007.00;;;;9837101;29;20965;-75
2023/05/06 13:36:08;;;;;;;3.28;1.83;;;;;24.50;101002.00;;;;9811634;29;20219;-76
2023/05/06 13:41:09;;;;;;;4.20;1.63;;;;;25.50;101003.00;;;;9828279;29;20578;-77
2023/05/06 13:46:11;;;;;;;5.95;1.48;;;;;26.00;101000.00;;;;9809646;29;20251;-76
2023/05/06 13:51:12;;;;;;;3.42;1.20;;;;;25.60;101000.00;;;;9810129;29;20266;-75
2023/05/06 13:56:13;;;;;;;6.22;2.03;;;;;25.20;100998.00;;;;9824638;29;21861;-75
2023/05/06 14:01:15;;;;;;;3.35;1.42;;;;;24.50;101010.00;;;;9816343;29;21380;-76
2023/05/06 14:06:17;;;;;;;8.95;2.10;;;;;24.60;100997.00;;;;9810801;29;20244;-76
2023/05/06 14:11:19;;;;;;;5.38;1.77;;;;;25.20;100985.00;;;;9827056;29;20825;-77
2023/05/06 14:16:20;;;;;;;4.53;2.03;;;;;25.60;100988.00;;;;9811389;29;20231;-77
2023/05/06 14:21:22;;;;;;;5.75;1.40;;;;;25.30;100990.00;;;;9809623;29;20234;-77
2023/05/06 14:26:23;;;;;;;8.52;1.60;;;;;25.00;100986.00;;;;9809562;29;20254;-75
2023/05/06 14:31:25;;;;;;;11.80;2.55;;;;;24.70;100989.00;;;;9815207;29;21655;-78
2023/05/06 14:36:26;;;;;;;7.53;2.13;;;;;24.00;100983.00;;;;9825235;29;20255;-77
2023/05/06 14:41:28;;;;;;;4.55;2.15;;;;;23.20;100984.00;;;;9802749;29;20453;-77
2023/05/06 14:46:29;;;;;;;6.97;2.58;;;;;22.70;100973.00;;;;9797391;29;20227;-76
2023/05/06 14:51:33;;;;;;;5.40;1.98;;;;;22.80;100973.00;;;;9802277;29;20339;-76
2023/05/06 14:56:34;;;;;;;6.40;1.65;;;;;22.90;100973.00;;;;9785539;29;20284;-77
2023/05/06 15:01:36;;;;;;;6.47;1.88;;;;;22.50;100978.00;;;;9802112;29;20333;-76
2023/05/06 15:06:37;;;;;;;8.30;2.05;;;;;22.10;100974.00;;;;9788967;29;20231;-75
2023/05/06 15:11:39;;;;;;;4.03;1.38;;;;;21.60;100976.00;;;;9783271;29;20227;-76
2023/05/06 15:16:40;;;;;;;5.95;1.52;;;;;21.30;100981.00;;;;9802552;29;20724;-76
2023/05/06 15:21:41;;;;;;;4.57;1.70;;;;;21.00;100983.00;;;;9799398;29;20242;-77
2023/05/06 15:26:43;;;;;;;6.05;1.63;;;;;20.90;100983.00;;;;9804803;29;20227;-76
2023/05/06 15:31:44;;;;;;;4.60;1.75;;;;;21.00;100988.00;;;;9806112;29;20224;-76
2023/05/06 15:36:51;;;;;;;4.40;1.80;;;;;20.90;100991.00;;;;9803720;29;21152;-77
2023/05/06 15:41:52;;;;;;;3.20;1.30;;;;;20.60;100990.00;;;;9805880;29;20239;-76
2023/05/06 15:46:54;;;;;;;8.07;3.20;;;;;20.40;100988.00;;;;9808402;29;20223;-75
2023/05/06 15:51:55;;;;;;;6.53;2.30;;;;;20.30;100995.00;;;;9806634;29;21083;-75
2023/05/06 15:57:00;;;;;;;5.35;2.13;;;;;20.30;100993.00;;;;9794402;29;20215;-76
2023/05/06 16:02:02;;;;;;;6.35;1.83;;;;;20.40;100998.00;;;;9800285;29;20253;-79
2023/05/06 16:07:07;;;;;;;6.90;2.22;;;;;20.50;101000.00;;;;9820382;29;21663;-76
2023/05/06 16:12:08;;;;;;;7.43;2.13;;;;;20.50;100994.00;;;;9813138;29;20223;-77
2023/05/06 16:17:10;;;;;;;9.55;2.33;;;;;20.60;100993.00;;;;9817499;29;20234;-79
2023/05/06 16:22:11;;;;;;;6.63;2.35;;;;;20.40;100994.00;;;;9802044;29;20345;-76
2023/05/06 16:27:12;;;;;;;6.80;2.40;;;;;20.10;101006.00;;;;9813700;29;20313;-79
2023/05/06 16:32:14;;;;;;;5.00;2.42;;;;;19.90;101002.00;;;;9819394;29;21260;-76
2023/05/06 16:37:15;;;;;;;6.43;2.08;;;;;19.60;100992.00;;;;9809403;29;20306;-77
2023/05/06 16:42:17;;;;;;;11.70;2.35;;;;;19.70;100995.00;;;;9812220;29;20715;-77
2023/05/06 16:47:24;;;;;;;10.75;2.72;;;;;19.90;100997.00;;;;9805993;29;20951;-77
2023/05/06 16:52:26;;;;;;;8.95;2.42;;;;;19.80;100995.00;;;;9802352;29;20459;-77
2023/05/06 16:57:30;;;;;;;6.32;1.80;;;;;19.50;100988.00;;;;9792564;29;20261;-79
2023/05/06 17:02:31;;;;;;;8.02;2.10;;;;;19.40;100989.00;;;;9798116;29;20326;-76
2023/05/06 17:07:33;;;;;;;10.05;2.20;;;;;19.30;100988.00;;;;9806808;29;20288;-75
2023/05/06 17:12:35;;;;;;;7.75;2.35;;;;;19.20;100989.00;;;;9809682;29;20234;-79
2023/05/06 17:17:36;;;;;;;6.70;2.25;;;;;19.30;100994.00;;;;9817264;29;20231;-77
2023/05/06 17:22:37;;;;;;;6.10;1.95;;;;;19.40;100983.00;;;;9806201;29;20246;-78
2023/05/06 17:27:39;;;;;;;5.13;1.73;;;;;19.30;100991.00;;;;9806449;29;20220;-76
2023/05/06 17:32:41;;;;;;;6.95;2.22;;;;;19.30;100984.00;;;;9785912;29;20359;-75
2023/05/06 17:37:42;;;;;;;8.02;2.22;;;;;19.20;100989.00;;;;9813421;29;20585;-79
2023/05/06 17:42:43;;;;;;;5.25;2.80;;;;;19.20;100985.00;;;;9812770;29;20301;-76
2023/05/06 17:47:45;;;;;;;4.00;2.05;;;;;19.00;100991.00;;;;9786729;29;20259;-77
2023/05/06 17:52:49;;;;;;;8.93;2.63;;;;;18.90;100990.00;;;;9796739;29;20227;-79
2023/05/06 17:57:51;;;;;;;9.82;3.75;;;;;18.80;100993.00;;;;9821254;29;20231;-80
2023/05/06 18:02:53;;;;;;;5.90;3.05;;;;;18.80;100993.00;;;;9816429;29;21870;-73
2023/05/06 18:07:55;;;;;;;5.20;2.70;;;;;18.70;100983.00;;;;9801165;29;20278;-77
2023/05/06 18:12:57;;;;;;;9.20;3.45;;;;;18.60;100999.00;;;;9803194;29;20231;-77
2023/05/06 18:17:58;;;;;;;7.38;2.17;;;;;18.50;101001.00;;;;9805516;29;20531;-75
2023/05/06 18:22:59;;;;;;;7.78;2.65;;;;;18.40;101009.00;;;;9814966;29;21217;-79
2023/05/06 18:28:03;;;;;;;11.68;2.90;;;;;18.30;101003.00;;;;9823679;29;20215;-82
2023/05/06 18:33:04;;;;;;;9.07;2.65;;;;;18.30;101005.00;;;;9812538;29;20262;-76
2023/05/06 18:38:06;;;;;;;6.47;2.88;;;;;18.20;101000.00;;;;9814613;29;20258;-79
2023/05/06 18:43:07;;;;;;;6.40;2.58;;;;;18.20;100999.00;;;;9815464;29;20305;-76
2023/05/06 18:48:09;;;;;;;9.23;3.10;;;;;18.10;100997.00;;;;9786999;29;20623;-76
2023/05/06 18:53:11;;;;;;;8.38;3.90;;;;;18.00;100998.00;;;;9811906;29;20320;-82
2023/05/06 18:58:12;;;;;;;7.03;2.85;;;;;17.90;101000.00;;;;9812768;29;20734;-77
2023/05/06 19:03:13;;;;;;;18.42;3.55;;;;;17.80;100999.00;;;;9802295;29;20243;-75
2023/05/06 19:08:15;;;;;;;13.68;4.22;;;;;17.80;101004.00;;;;9813114;29;20617;-80
2023/05/06 19:13:16;;;;;;;8.88;2.80;;;;;17.70;100997.00;;;;9817709;29;20695;-79
2023/05/06 19:18:18;;;;;;;6.65;2.47;;;;;17.60;101005.00;;;;9811077;29;20429;-78
2023/05/06 19:23:19;;;;;;;7.55;2.53;;;;;17.60;101005.00;;;;9808529;29;20243;-77
2023/05/06 19:28:20;;;;;;;8.18;2.35;;;;;17.50;100998.00;;;;9815375;29;20215;-80
2023/05/06 19:33:22;;;;;;;10.40;2.92;;;;;17.50;100996.00;;;;9792085;29;20242;-76
2023/05/06 19:38:23;;;;;;;11.18;3.05;;;;;17.40;100988.00;;;;9799840;29;20267;-76
2023/05/06 19:43:24;;;;;;;10.70;2.38;;;;;17.30;100991.00;;;;9803266;29;20243;-76
2023/05/06 19:48:26;;;;;;;10.35;2.67;;;;;17.30;100996.00;;;;9789271;29;20235;-77
2023/05/06 19:53:27;;;;;;;12.10;2.42;;;;;17.20;100999.00;;;;9782625;29;20219;-75
2023/05/06 19:58:29;;;;;;;14.25;2.53;;;;;17.10;100996.00;;;;9802198;29;20544;-75
2023/05/06 20:03:31;;;;;;;12.27;2.45;;;;;17.00;100988.00;;;;9803634;29;20869;-76
2023/05/06 20:08:34;;;;;;;7.45;2.90;;;;;16.90;100984.00;;;;9811289;29;20239;-80
2023/05/06 20:13:35;;;;;;;4.78;2.33;;;;;16.80;100985.00;;;;9811802;29;20228;-79
2023/05/06 20:18:36;;;;;;;7.05;2.67;;;;;16.70;100992.00;;;;9811969;29;20231;-78
2023/05/06 20:23:38;;;;;;;9.35;2.53;;;;;16.70;100995.00;;;;9797389;29;20726;-78
2023/05/06 20:28:39;;;;;;;7.00;2.42;;;;;16.60;101002.00;;;;9793196;29;20219;-76
2023/05/06 20:33:41;;;;;;;8.45;2.45;;;;;16.60;101002.00;;;;9816573;29;20304;-79
2023/05/06 20:38:42;;;;;;;9.35;2.90;;;;;16.70;101002.00;;;;9811303;29;20227;-77
2023/05/06 20:43:43;;;;;;;9.45;2.63;;;;;16.60;101019.00;;;;9818011;29;20254;-78
2023/05/06 20:48:45;;;;;;;10.55;3.33;;;;;16.60;101017.00;;;;9821371;29;20227;-79
2023/05/06 20:53:47;;;;;;;7.72;2.50;;;;;16.60;101024.00;;;;9814738;29;20254;-77
2023/05/06 20:58:48;;;;;;;7.95;2.88;;;;;16.50;101022.00;;;;9792422;29;20584;-77
2023/05/06 21:03:50;;;;;;;9.38;3.58;;;;;16.50;101021.00;;;;9819469;29;20239;-79
2023/05/06 21:08:52;;;;;;;9.48;3.53;;;;;16.50;101014.00;;;;9810636;29;20223;-76
2023/05/06 21:13:54;;;;;;;5.72;3.08;;;;;16.40;101029.00;;;;9806066;29;20297;-76
2023/05/06 21:18:55;;;;;;;9.77;3.40;;;;;16.40;101024.00;;;;9802671;29;20219;-76
2023/05/06 21:23:57;;;;;;;9.45;3.60;;;;;16.40;101033.00;;;;9802035;29;20242;-79
2023/05/06 21:28:58;;;;;;;6.28;3.92;;;;;16.40;101019.00;;;;9789247;29;21672;-75
2023/05/06 21:34:00;;;;;;;10.30;4.80;;;;;16.40;101012.00;;;;9798437;29;20220;-75
2023/05/06 21:39:10;;;;;;;9.60;3.65;;;;;16.40;101015.00;;;;9804038;29;20417;-75
2023/05/06 21:44:12;;;;;;;5.50;3.67;;;;;16.30;101014.00;;;;9814547;29;20234;-79
2023/05/06 21:49:13;;;;;;;9.70;3.78;;;;;16.30;101010.00;;;;9773018;29;20612;-75
2023/05/06 21:54:15;;;;;;;7.53;3.53;;;;;16.20;101017.00;;;;9803363;29;20923;-75
2023/05/06 21:59:18;;;;;;;15.68;4.22;;;;;16.10;101006.00;;;;9782679;29;20967;-75
2023/05/06 22:04:19;;;;;;;11.40;3.67;;;;;16.00;101005.00;;;;9813435;29;21023;-76
2023/05/06 22:09:22;;;;;;;9.85;3.78;;;;;15.80;101006.00;;;;9780449;29;20685;-78
2023/05/06 22:14:23;;;;;;;9.38;5.00;;;;;15.60;101011.00;;;;9786663;29;20305;-81
2023/05/06 22:19:31;;;;;;;8.05;5.05;;;;;15.40;101022.00;;;;9811472;29;20223;-77
2023/05/06 22:24:33;;;;;;;10.73;5.23;;;;;15.30;101029.00;;;;9787689;29;20247;-76
2023/05/06 22:29:34;;;;;;;9.07;5.23;;;;;15.10;101022.00;;;;9790825;29;20436;-78
2023/05/06 22:34:36;;;;;;;11.67;6.20;;;;;15.00;101023.00;;;;9787052;29;20515;-79
2023/05/06 22:39:38;;;;;;;8.37;4.97;;;;;14.90;101031.00;;;;9786363;29;20290;-74
2023/05/06 22:44:39;;;;;;;13.67;5.30;;;;;14.90;101031.00;;;;9790288;29;20805;-76
2023/05/06 22:49:41;;;;;;;11.30;4.73;;;;;14.90;101035.00;;;;9818628;29;20219;-79
2023/05/06 22:54:42;;;;;;;13.27;4.77;;;;;15.00;101032.00;;;;9786229;29;20227;-76
2023/05/06 22:59:44;;;;;;;8.03;4.40;;;;;15.00;101036.00;;;;9817235;29;21554;-79
2023/05/06 23:04:45;;;;;;;8.37;4.70;;;;;15.00;101034.00;;;;9786558;29;20266;-76
2023/05/06 23:09:47;;;;;;;7.30;4.63;;;;;15.00;101041.00;;;;9800885;29;20638;-77
2023/05/06 23:14:48;;;;;;;12.47;5.63;;;;;15.10;101031.00;;;;9816711;29;20950;-78
2023/05/06 23:19:50;;;;;;;10.43;5.30;;;;;15.20;101036.00;;;;9814318;29;20347;-79
2023/05/06 23:24:51;;;;;;;7.17;4.33;;;;;15.20;101040.00;;;;9776314;29;20258;-77
2023/05/06 23:29:52;;;;;;;10.27;5.40;;;;;15.20;101048.00;;;;9784786;29;21650;-76
2023/05/06 23:34:54;;;;;;;9.23;4.73;;;;;15.20;101039.00;;;;9781919;29;20361;-77
2023/05/06 23:39:57;;;;;;;12.43;5.43;;;;;15.20;101039.00;;;;9789745;29;20685;-75
2023/05/06 23:44:59;;;;;;;9.93;5.70;;;;;15.20;101050.00;;;;9787672;29;20265;-76
2023/05/06 23:50:00;;;;;;;8.33;6.03;;;;;15.20;101048.00;;;;9800783;29;20208;-76
2023/05/06 23:55:02;;;;;;;14.20;5.73;;;;;15.20;101047.00;;;;9803204;29;20595;-75
